Time;durP1;ratioP1;P1;durP2;ratioP2;P2;SDS_P1;SDS_P2;PMS_P1;PMS_P2;Temp;Humidity;BMP_temperature;BMP_pressure;BME280_temperature;BME280_humidity;BME280_pressure;Samples;Min_cycle;Max_cycle;Signal;HPM_P1;HPM_P2
2022/04/15 00:01:13;;;;;;;1.30;1.02;;;;;;;11.27;100.00;99553.19;4885453;29;20102;-95
2022/04/15 00:03:50;;;;;;;1.48;1.20;;;;;;;11.11;100.00;99548.66;4885556;29;20041;-96
2022/04/15 00:06:28;;;;;;;3.63;1.15;;;;;;;10.93;100.00;99546.22;4885556;29;20061;-95
2022/04/15 00:08:56;;;;;;;3.53;1.42;;;;;;;10.59;100.00;99522.94;4885472;29;20038;-94
2022/04/15 00:11:44;;;;;;;5.22;1.90;;;;;;;10.61;100.00;99526.31;4885365;29;20050;-94
2022/04/15 00:14:31;;;;;;;4.80;2.00;;;;;;;10.73;100.00;99553.97;4885446;29;20030;-96
2022/04/15 00:17:10;;;;;;;5.22;1.70;;;;;;;10.51;100.00;99533.81;4879934;29;20034;-96
2022/04/15 00:19:46;;;;;;;2.30;1.42;;;;;;;10.68;100.00;99553.66;4873574;29;20199;-95
2022/04/15 00:22:33;;;;;;;6.22;1.88;;;;;;;10.65;100.00;99549.41;4868793;29;20073;-95
2022/04/15 00:25:15;;;;;;;2.28;1.30;;;;;;;10.48;100.00;99536.91;4869659;29;20061;-95
2022/04/15 00:27:49;;;;;;;3.78;1.80;;;;;;;10.52;100.00;99539.09;4869766;29;20046;-95
2022/04/15 00:30:22;;;;;;;1.70;1.35;;;;;;;10.68;100.00;99549.06;4864898;29;20132;-94
2022/04/15 00:32:54;;;;;;;2.97;1.60;;;;;;;10.59;100.00;99537.38;4864910;29;20050;-95
2022/04/15 00:35:23;;;;;;;4.47;1.50;;;;;;;10.64;100.00;99542.28;4864251;29;20486;-95
2022/04/15 00:38:02;;;;;;;2.28;1.23;;;;;;;10.55;100.00;99535.19;4863804;29;20109;-94
2022/04/15 00:40:34;;;;;;;2.05;1.50;;;;;;;10.49;100.00;99538.59;4864416;29;20136;-95
2022/04/15 00:43:14;;;;;;;6.25;1.80;;;;;;;10.52;100.00;99549.97;4866732;29;20078;-95
2022/04/15 00:45:42;;;;;;;11.80;1.67;;;;;;;10.51;100.00;99556.44;4865066;29;20057;-94
2022/04/15 00:48:12;;;;;;;4.97;1.70;;;;;;;10.33;100.00;99534.03;4863472;29;20117;-95
2022/04/15 00:50:46;;;;;;;;;;;;;;;10.45;100.00;99551.72;4864749;29;20113;-95
2022/04/15 00:53:24;;;;;;;7.72;2.00;;;;;;;10.41;100.00;99553.06;4867470;29;19980;-96
2022/04/15 00:55:59;;;;;;;2.58;1.88;;;;;;;10.44;100.00;99560.88;4867484;29;20244;-96
2022/04/15 00:58:44;;;;;;;4.90;1.77;;;;;;;10.47;100.00;99546.94;4871781;29;20065;-96
2022/04/15 01:04:02;;;;;;;3.03;1.75;;;;;;;10.44;100.00;99555.44;4871697;29;20053;-96
2022/04/15 01:06:44;;;;;;;1.75;1.25;;;;;;;10.25;100.00;99548.47;4884526;29;20053;-96
2022/04/15 01:09:21;;;;;;;3.20;1.75;;;;;;;10.31;100.00;99557.81;4867792;29;20144;-95
2022/04/15 01:12:09;;;;;;;8.32;2.55;;;;;;;10.15;100.00;99543.25;4872243;29;20059;-96
2022/04/15 01:15:15;;;;;;;4.63;1.83;;;;;;;10.06;100.00;99547.00;4870565;29;20118;-96
2022/04/15 01:17:43;;;;;;;5.53;2.15;;;;;;;10.09;100.00;99543.94;4875811;29;20117;-95
2022/04/15 01:20:19;;;;;;;1.90;1.70;;;;;;;10.12;100.00;99543.59;4877077;29;20054;-96
2022/04/15 01:23:03;;;;;;;8.73;3.55;;;;;;;10.18;100.00;99544.78;4871450;29;20069;-96
2022/04/15 01:25:33;;;;;;;6.22;1.85;;;;;;;10.35;100.00;99556.50;4868235;29;20060;-96
2022/04/15 01:28:04;;;;;;;5.13;2.35;;;;;;;10.27;100.00;99549.19;4869940;29;20053;-96
2022/04/15 01:30:32;;;;;;;2.85;1.50;;;;;;;10.27;100.00;99544.56;4867685;29;20060;-96
2022/04/15 01:33:07;;;;;;;2.58;1.60;;;;;;;10.25;100.00;99549.34;4866004;29;20113;-96
2022/04/15 01:35:48;;;;;;;5.60;2.13;;;;;;;10.17;100.00;99551.22;4869287;29;20082;-96
2022/04/15 01:38:30;;;;;;;5.00;1.88;;;;;;;10.24;100.00;99566.66;4868265;29;20068;-96
2022/04/15 01:41:04;;;;;;;4.00;1.67;;;;;;;10.06;100.00;99542.41;4872769;29;20061;-96
2022/04/15 01:46:21;;;;;;;3.28;2.53;;;;;;;10.12;100.00;99565.34;4872689;29;20053;-95
2022/04/15 01:49:05;;;;;;;5.18;2.20;;;;;;;10.05;100.00;99558.88;4869824;29;20053;-96
2022/04/15 01:51:42;;;;;;;3.45;2.30;;;;;;;10.00;100.00;99564.84;4867786;29;20053;-96
2022/04/15 01:54:24;;;;;;;3.08;1.75;;;;;;;9.90;100.00;99556.84;4869253;29;20057;-96
2022/04/15 01:57:11;;;;;;;2.85;1.98;;;;;;;9.57;100.00;99547.88;4869827;29;20087;-96
2022/04/15 02:00:15;;;;;;;6.68;2.28;;;;;;;9.55;100.00;99548.03;4870852;29;20057;-96
2022/04/15 02:06:10;;;;;;;6.78;1.50;;;;;;;9.43;100.00;99551.28;4871246;29;20528;-96
2022/04/15 02:15:35;;;;;;;6.45;2.20;;;;;;;9.25;100.00;99570.41;4837699;29;20044;-96
2022/04/15 02:21:40;;;;;;;4.53;2.30;;;;;;;9.04;100.00;99569.81;4866769;29;20048;-96
2022/04/15 02:24:12;;;;;;;2.72;1.92;;;;;;;8.93;100.00;99578.28;4866839;29;20060;-96
2022/04/15 02:26:40;;;;;;;5.03;1.80;;;;;;;8.94;100.00;99569.16;4866788;29;20068;-96
2022/04/15 02:29:22;;;;;;;2.80;2.00;;;;;;;9.04;100.00;99566.28;4867121;29;20060;-96
2022/04/15 02:31:57;;;;;;;1.95;1.63;;;;;;;8.82;100.00;99557.75;4866121;29;20057;-96
2022/04/15 02:34:26;;;;;;;5.70;2.15;;;;;;;8.83;100.00;99556.72;4867636;29;20053;-96
2022/04/15 02:37:04;;;;;;;3.03;2.08;;;;;;;8.95;100.00;99557.25;4879872;29;20086;-96
2022/04/15 02:42:45;;;;;;;3.85;2.40;;;;;;;8.74;100.00;99570.41;4887268;29;20064;-96
2022/04/15 02:45:32;;;;;;;21.23;2.50;;;;;;;8.63;100.00;99563.44;4884146;29;20053;-96
2022/04/15 02:48:02;;;;;;;5.07;2.05;;;;;;;8.68;100.00;99589.00;4879758;29;20053;-96
2022/04/15 02:50:29;;;;;;;;;;;;;;;8.60;100.00;99593.56;4868102;29;20113;-95
2022/04/15 02:53:01;;;;;;;3.40;1.70;;;;;;;8.52;100.00;99585.38;4863686;29;20014;-96
2022/04/15 02:55:31;;;;;;;1.95;1.70;;;;;;;8.63;100.00;99593.25;4863685;29;20057;-96
2022/04/15 02:58:13;;;;;;;4.25;2.13;;;;;;;8.46;100.00;99579.59;4863542;29;20049;-95
2022/04/15 03:00:44;;;;;;;3.33;1.92;;;;;;;8.41;100.00;99573.75;4863486;29;20059;-95
2022/04/15 03:03:13;;;;;;;2.58;1.73;;;;;;;8.47;100.00;99588.56;4863701;29;20088;-93
2022/04/15 03:05:42;;;;;;;2.95;2.20;;;;;;;8.48;100.00;99574.03;4863533;29;20057;-93
2022/04/15 03:08:10;;;;;;;5.80;1.83;;;;;;;8.43;100.00;99574.47;4862750;29;20102;-94
2022/04/15 03:10:38;;;;;;;5.07;2.00;;;;;;;8.50;100.00;99588.25;4863474;29;20053;-93
2022/04/15 03:13:08;;;;;;;6.60;2.30;;;;;;;8.35;100.00;99569.00;4863369;29;20057;-93
2022/04/15 03:15:37;;;;;;;3.35;2.40;;;;;;;8.33;100.00;99566.44;4862337;29;20054;-94
2022/04/15 03:18:11;;;;;;;4.57;2.35;;;;;;;8.17;100.00;99574.47;4872070;29;20049;-93
2022/04/15 03:20:42;;;;;;;2.83;1.92;;;;;;;8.23;100.00;99581.94;4864688;29;20140;-94
2022/04/15 03:23:11;;;;;;;3.72;1.75;;;;;;;8.21;100.00;99570.44;4863626;29;20118;-94
2022/04/15 03:25:40;;;;;;;3.20;2.35;;;;;;;8.32;100.00;99589.16;4864461;29;20065;-94
2022/04/15 03:28:20;;;;;;;5.60;1.88;;;;;;;8.25;100.00;99585.38;4863800;29;20125;-95
2022/04/15 03:30:56;;;;;;;5.50;2.28;;;;;;;8.25;100.00;99584.50;4863930;29;20136;-93
2022/04/15 03:33:29;;;;;;;3.17;2.17;;;;;;;8.28;100.00;99590.47;4863270;29;20490;-94
2022/04/15 03:36:02;;;;;;;2.83;2.15;;;;;;;8.28;100.00;99606.72;4863644;29;20061;-94
2022/04/15 03:38:30;;;;;;;8.02;2.30;;;;;;;8.03;100.00;99585.91;4864118;29;20109;-95
2022/04/15 03:41:03;;;;;;;3.35;2.33;;;;;;;7.94;100.00;99595.81;4864129;29;20459;-94
2022/04/15 03:43:30;;;;;;;3.80;2.20;;;;;;;7.79;100.00;99577.41;4863110;29;20513;-94
2022/04/15 03:45:57;;;;;;;2.35;2.15;;;;;;;7.87;100.00;99594.72;4862852;29;20061;-93
2022/04/15 03:48:33;;;;;;;2.20;1.67;;;;;;;7.91;100.00;99607.78;4862767;29;20489;-94
2022/04/15 03:51:07;;;;;;;4.70;2.17;;;;;;;7.95;100.00;99600.22;4863442;29;20069;-95
2022/04/15 03:53:38;;;;;;;3.20;2.15;;;;;;;7.89;100.00;99579.16;4863556;29;20057;-94
2022/04/15 03:56:14;;;;;;;4.75;2.10;;;;;;;7.88;100.00;99597.28;4863162;29;20516;-95
2022/04/15 03:58:41;;;;;;;3.25;2.40;;;;;;;7.91;100.00;99610.50;4862909;29;20061;-94
2022/04/15 04:01:09;;;;;;;4.50;2.45;;;;;;;7.86;100.00;99596.59;4862651;29;20414;-93
2022/04/15 04:03:43;;;;;;;3.63;2.55;;;;;;;7.77;100.00;99595.69;4862898;29;20065;-93
2022/04/15 04:06:13;;;;;;;7.18;2.08;;;;;;;7.85;100.00;99611.13;4862812;29;20122;-93
2022/04/15 04:08:41;;;;;;;3.83;2.55;;;;;;;7.64;100.00;99592.53;4862806;29;20064;-94
2022/04/15 04:11:10;;;;;;;2.78;2.00;;;;;;;7.55;100.00;99588.03;4863017;29;20498;-94
2022/04/15 04:13:37;;;;;;;6.18;2.53;;;;;;;7.70;100.00;99600.00;4862241;29;20459;-94
2022/04/15 04:16:11;;;;;;;4.53;2.60;;;;;;;7.54;100.00;99581.78;4862403;29;20060;-94
2022/04/15 04:18:45;;;;;;;2.95;2.22;;;;;;;7.61;100.00;99592.81;4862742;29;20136;-92
2022/04/15 04:21:20;;;;;;;3.38;2.40;;;;;;;7.55;100.00;99613.22;4862310;29;20058;-92
2022/04/15 04:23:56;;;;;;;3.97;2.50;;;;;;;7.50;100.00;99595.75;4862783;29;20137;-94
2022/04/15 04:29:18;;;;;;;3.13;2.47;;;;;;;7.57;100.00;99618.50;4866807;29;20056;-93
2022/04/15 04:31:47;;;;;;;4.40;2.67;;;;;;;7.55;100.00;99605.13;4865739;29;20049;-93
2022/04/15 04:34:18;;;;;;;2.97;2.50;;;;;;;7.40;100.00;99617.47;4865786;29;20057;-93
2022/04/15 04:36:49;;;;;;;7.57;2.40;;;;;;;7.46;100.00;99627.69;4865171;29;20497;-93
2022/04/15 04:39:26;;;;;;;3.70;2.60;;;;;;;7.33;100.00;99614.56;4866197;29;20070;-92
2022/04/15 04:41:54;;;;;;;4.18;2.47;;;;;;;7.42;100.00;99629.88;4865735;29;20059;-92
2022/04/15 04:44:34;;;;;;;5.60;2.38;;;;;;;7.23;100.00;99611.06;4866147;29;20053;-93
2022/04/15 04:47:06;;;;;;;3.05;1.98;;;;;;;7.44;100.00;99635.97;4866004;29;20482;-94
2022/04/15 04:49:42;;;;;;;4.93;2.50;;;;;;;7.52;100.00;99637.91;4865404;29;20117;-94
2022/04/15 04:52:11;;;;;;;6.68;2.53;;;;;;;7.43;100.00;99620.72;4865246;29;20481;-93
2022/04/15 04:54:38;;;;;;;4.25;2.22;;;;;;;7.58;100.00;99636.44;4865250;29;20566;-93
2022/04/15 04:57:15;;;;;;;6.05;2.35;;;;;;;7.57;100.00;99637.44;4865540;29;20064;-92
2022/04/15 04:59:42;;;;;;;5.97;2.20;;;;;;;7.45;100.00;99631.38;4865428;29;20490;-92
2022/04/15 05:02:12;;;;;;;4.88;2.40;;;;;;;7.60;100.00;99647.94;4864936;29;20144;-94
2022/04/15 05:04:52;;;;;;;3.65;1.92;;;;;;;7.55;100.00;99634.88;4865104;29;20057;-93
2022/04/15 05:07:21;;;;;;;6.90;2.53;;;;;;;7.61;100.00;99636.97;4867542;29;20081;-93
2022/04/15 05:09:55;;;;;;;5.28;2.40;;;;;;;7.78;100.00;99654.22;4871844;29;20061;-92
2022/04/15 05:12:27;;;;;;;2.72;2.40;;;;;;;7.96;100.00;99656.94;4872531;29;20069;-92
2022/04/15 05:14:58;;;;;;;3.83;2.30;;;;;;;7.93;100.00;99637.41;4878459;29;20058;-92
2022/04/15 05:17:43;;;;;;;11.27;2.55;;;;;;;7.95;100.00;99630.84;4886942;29;20042;-94
2022/04/15 05:20:13;;;;;;;3.10;2.25;;;;;;;8.02;100.00;99649.19;4887292;29;20098;-92
2022/04/15 05:22:47;;;;;;;2.92;2.38;;;;;;;8.10;100.00;99657.34;4877241;29;20049;-92
2022/04/15 05:25:14;;;;;;;4.32;2.67;;;;;;;8.26;100.00;99651.22;4872150;29;20058;-91
2022/04/15 05:27:41;;;;;;;5.20;2.33;;;;;;;8.31;100.00;99652.44;4871370;29;20045;-94
2022/04/15 05:30:12;;;;;;;3.92;2.47;;;;;;;8.38;100.00;99659.94;4869113;29;20058;-93
2022/04/15 05:32:40;;;;;;;4.25;2.25;;;;;;;8.54;100.00;99664.66;4866173;29;20460;-93
2022/04/15 05:35:08;;;;;;;4.38;2.38;;;;;;;8.54;100.00;99651.13;4863002;29;20076;-86
2022/04/15 05:37:38;;;;;;;4.63;3.08;;;;;;;8.62;100.00;99667.41;4860067;29;20100;-87
2022/04/15 05:40:07;;;;;;;4.53;2.75;;;;;;;8.85;100.00;99681.25;4860700;29;20081;-87
2022/04/15 05:42:44;;;;;;;4.07;2.63;;;;;;;9.01;100.00;99653.38;4864529;29;20050;-94
2022/04/15 05:45:21;;;;;;;4.43;3.13;;;;;;;9.44;100.00;99680.50;4864888;29;20057;-93
2022/04/15 05:48:03;;;;;;;5.00;3.13;;;;;;;9.63;100.00;99677.50;4864622;29;20053;-93
2022/04/15 05:50:35;;;;;;;5.63;3.13;;;;;;;9.68;100.00;99660.69;4866268;29;20062;-95
2022/04/15 05:53:07;;;;;;;4.45;3.20;;;;;;;9.68;100.00;99669.72;4864402;29;20061;-94
2022/04/15 05:55:39;;;;;;;6.75;3.20;;;;;;;9.79;100.00;99671.25;4864534;29;20099;-95
2022/04/15 05:58:10;;;;;;;5.57;3.20;;;;;;;10.23;100.00;99667.38;4865346;29;20061;-94
2022/04/15 06:00:54;;;;;;;5.32;3.13;;;;;;;10.48;100.00;99665.53;4864271;29;20136;-95
2022/04/15 06:03:22;;;;;;;8.43;3.00;;;;;;;10.94;100.00;99683.94;4857482;29;20068;-84
2022/04/15 06:05:49;;;;;;;5.25;3.38;;;;;;;11.37;100.00;99694.50;4855027;29;20050;-85
2022/04/15 06:08:16;;;;;;;5.15;2.95;;;;;;;11.37;100.00;99698.06;4850985;29;20061;-85
2022/04/15 06:10:44;;;;;;;6.00;2.83;;;;;;;11.51;100.00;99704.63;4860848;29;20049;-85
2022/04/15 06:13:19;;;;;;;7.30;2.47;;;;;;;11.57;100.00;99686.75;4860325;29;20494;-85
2022/04/15 06:15:53;;;;;;;5.03;2.47;;;;;;;11.86;99.26;99696.94;4861488;29;20056;-85
2022/04/15 18:54:30;;;;;;;2.10;1.10;;;;;;;15.36;49.81;99696.41;5101713;28;20051;-95
2022/04/15 18:57:04;;;;;;;;;;;;;;;15.47;49.80;99714.16;5093376;28;20071;-96
2022/04/15 18:59:33;;;;;;;2.15;1.23;;;;;;;15.40;50.31;99706.75;5093621;28;19921;-96
2022/04/15 19:02:36;;;;;;;;;;;;;;;;;;;;;
2022/04/15 19:05:22;;;;;;;;;;;;;;;;;;;;;
2022/04/15 19:07:53;;;;;;;3.30;1.60;;;;;;;14.99;52.71;99728.63;5092576;28;20049;-96
2022/04/15 19:10:23;;;;;;;;;;;;;;;14.80;54.27;99743.88;5096009;28;20052;-96
2022/04/15 19:13:18;;;;;;;2.95;1.55;;;;;;;14.34;56.61;99745.09;5097934;28;19954;-96
2022/04/15 19:15:57;;;;;;;1.80;1.30;;;;;;;14.15;57.85;99749.31;5101260;28;20495;-96
2022/04/15 19:22:17;;;;;;;6.82;2.28;;;;;;;13.81;59.58;99753.56;5096212;28;20067;-96
2022/04/15 19:32:24;;;;;;;;;;;;;;;;;;;;;
2022/04/15 19:35:38;;;;;;;;;;;;;;;;;;;;;
2022/04/15 19:41:09;;;;;;;6.40;1.80;;;;;;;13.30;63.28;99789.00;5091764;28;20123;-94
2022/04/15 19:43:41;;;;;;;3.83;1.58;;;;;;;13.23;63.98;99786.16;5092174;28;20063;-94
2022/04/15 19:46:13;;;;;;;2.50;1.90;;;;;;;13.23;63.97;99795.22;5072083;28;20048;-94
2022/04/15 19:48:48;;;;;;;2.42;1.85;;;;;;;13.04;64.62;99793.03;5070785;28;20047;-95
2022/04/15 19:54:13;;;;;;;3.92;1.85;;;;;;;13.09;64.71;99809.66;5089302;28;20074;-94
2022/04/15 20:02:30;;;;;;;4.00;1.30;;;;;;;12.63;65.67;99824.22;5077836;28;20522;-95
2022/04/15 20:05:00;;;;;;;7.05;1.80;;;;;;;12.73;65.79;99838.44;5077789;28;20495;-94
2022/04/15 20:07:30;;;;;;;2.58;1.60;;;;;;;12.64;64.66;99828.63;5076915;28;20139;-94
2022/04/15 20:10:10;;;;;;;3.53;2.45;;;;;;;12.50;65.38;99826.72;5077853;28;20060;-95
2022/04/15 20:12:47;;;;;;;2.00;1.63;;;;;;;12.46;65.87;99847.19;5077577;28;20135;-95
2022/04/15 20:15:27;;;;;;;2.75;1.60;;;;;;;12.42;66.65;99852.16;5077278;28;20046;-94
2022/04/15 20:18:07;;;;;;;;;;;;;;;12.36;67.17;99855.59;5077924;28;20048;-94
2022/04/15 20:20:48;;;;;;;6.10;2.45;;;;;;;12.17;66.41;99849.56;5077562;28;19976;-95
2022/04/15 20:23:47;;;;;;;4.38;1.80;;;;;;;11.94;65.97;99851.38;5077343;28;20072;-96
2022/04/15 20:29:21;;;;;;;1.92;1.40;;;;;;;11.73;65.52;99854.66;5074366;28;20048;-94
2022/04/15 20:31:52;;;;;;;2.40;1.55;;;;;;;11.75;65.37;99863.53;5076469;28;20064;-93
2022/04/15 20:34:28;;;;;;;2.10;1.50;;;;;;;11.73;64.99;99862.81;5077021;28;20553;-94
2022/04/15 20:37:06;;;;;;;1.50;1.40;;;;;;;11.72;65.33;99874.78;5077728;28;20136;-95
2022/04/15 20:39:41;;;;;;;1.90;1.45;;;;;;;11.73;65.00;99873.72;5076884;28;20144;-94
2022/04/15 20:42:08;;;;;;;6.72;1.83;;;;;;;11.76;64.87;99870.69;5076918;28;20060;-94
2022/04/15 20:44:43;;;;;;;2.53;1.33;;;;;;;11.81;64.87;99879.16;5077430;28;20071;-93
2022/04/15 20:47:22;;;;;;;4.43;1.73;;;;;;;11.77;65.82;99869.63;5076258;28;20047;-94
2022/04/15 20:49:50;;;;;;;3.00;1.83;;;;;;;11.74;66.80;99872.72;5078738;28;20090;-93
2022/04/15 20:52:20;;;;;;;2.45;1.50;;;;;;;11.58;67.61;99870.91;5091463;28;20131;-94
2022/04/15 20:57:59;;;;;;;4.05;1.95;;;;;;;11.71;67.53;99903.03;5097713;28;20048;-94
2022/04/15 21:00:42;;;;;;;4.40;1.98;;;;;;;11.71;67.10;99900.31;5085027;28;20048;-94
2022/04/15 21:03:35;;;;;;;2.38;1.83;;;;;;;11.48;67.51;99885.53;5079474;28;20060;-94
2022/04/15 21:06:19;;;;;;;2.13;1.42;;;;;;;11.51;67.30;99892.50;5077756;28;20048;-95
2022/04/15 21:09:07;;;;;;;2.22;1.63;;;;;;;11.55;67.73;99922.97;5080002;28;20131;-94
2022/04/15 21:12:24;;;;;;;2.78;1.55;;;;;;;11.41;70.01;99891.84;5076427;28;20105;-96
2022/04/15 21:15:16;;;;;;;1.60;1.42;;;;;;;11.38;70.15;99895.78;5077435;28;20116;-96
2022/04/15 21:20:44;;;;;;;1.25;1.15;;;;;;;11.41;67.21;99916.34;5074417;28;20056;-95
2022/04/15 21:23:29;;;;;;;1.75;1.30;;;;;;;11.44;67.47;99916.00;5076734;28;20055;-95
2022/04/15 21:32:46;;;;;;;1.83;1.48;;;;;;;11.19;68.44;99916.03;5076715;28;20131;-94
2022/04/15 21:39:18;;;;;;;;;;;;;;;;;;;;;
2022/04/15 21:42:32;;;;;;;;;;;;;;;;;;;;;
2022/04/15 21:45:12;;;;;;;2.05;1.42;;;;;;;10.97;69.06;99932.03;5082089;28;20044;-95
2022/04/15 21:48:12;;;;;;;7.20;1.48;;;;;;;10.75;69.12;99909.03;5076265;28;20052;-94
2022/04/15 21:57:18;;;;;;;4.30;1.40;;;;;;;10.44;74.79;99920.50;5091185;28;20032;-94
2022/04/15 22:03:27;;;;;;;2.93;1.87;;;;;;;10.17;71.24;99921.59;5088416;28;20036;-95
2022/04/15 22:06:13;;;;;;;1.40;1.30;;;;;;;10.13;71.22;99922.06;5094750;28;20052;-95
2022/04/15 22:29:36;;;;;;;1.27;1.02;;;;;;;10.03;70.64;99958.38;4984249;28;20093;-94
2022/04/15 22:33:04;;;;;;;;;;;;;;;;;;;;;
2022/04/15 22:49:12;;;;;;;;;;;;;;;;;;;;;
2022/04/15 22:52:13;;;;;;;2.75;1.35;;;;;;;9.46;72.67;99980.59;5013906;28;20066;-93
2022/04/15 23:48:42;;;;;;;;;;;;;;;8.00;84.01;100019.44;4959196;28;20065;-95
2022/04/15 23:55:23;;;;;;;0.90;0.88;;;;;;;7.82;84.78;100020.19;5028359;28;20135;-95
